createdAt,value
2024-03-19T13:47:09.621Z,100255.79
2024-03-19T13:49:40.160Z,100255.55
2024-03-19T13:52:12.270Z,100254.05
2024-03-19T13:54:51.728Z,100248.36
2024-03-19T13:57:29.113Z,100254.54
2024-03-19T13:59:59.993Z,100251.92
2024-03-19T14:02:31.939Z,100247.32
2024-03-19T14:05:02.372Z,100246.84
2024-03-19T14:07:35.975Z,100244.39
2024-03-19T14:10:07.736Z,100250.64
2024-03-19T14:12:39.810Z,100244.20
2024-03-19T14:15:11.122Z,100243.35
2024-03-19T14:17:46.891Z,100244.95
2024-03-19T14:20:19.392Z,100244.73
2024-03-19T14:22:52.460Z,100244.70
2024-03-19T14:25:24.116Z,100247.42
2024-03-19T14:27:54.296Z,100245.96
2024-03-19T14:30:26.539Z,100250.16
2024-03-19T14:33:00.514Z,100249.55
2024-03-19T14:35:32.072Z,100249.14
2024-03-19T14:38:02.614Z,100243.19
2024-03-19T14:40:37.538Z,100245.42
2024-03-19T14:43:11.127Z,100242.48
2024-03-19T14:45:42.076Z,100245.60
2024-03-19T14:48:14.520Z,100241.94
2024-03-19T14:50:45.174Z,100240.20
2024-03-19T14:53:17.329Z,100243.52
2024-03-19T14:55:48.593Z,100238.00
2024-03-19T14:58:20.186Z,100240.84
2024-03-19T15:00:50.695Z,100240.58
2024-03-19T15:03:22.541Z,100243.01
2024-03-19T15:05:53.253Z,100240.77
2024-03-19T15:08:25.162Z,100237.85
2024-03-19T15:10:55.927Z,100239.44
2024-03-19T15:13:27.921Z,100242.38
2024-03-19T15:15:58.244Z,100244.32
2024-03-19T15:18:29.995Z,100242.13
2024-03-19T15:21:03.440Z,100242.66
2024-03-19T15:23:35.875Z,100238.91
2024-03-19T15:26:06.092Z,100238.49
2024-03-19T15:28:38.258Z,100239.07
2024-03-19T15:31:09.212Z,100238.41
2024-03-19T15:33:41.051Z,100238.96
2024-03-19T15:36:11.385Z,100238.65
2024-03-19T15:38:43.441Z,100236.08
2024-03-19T15:41:14.143Z,100237.02
2024-03-19T15:43:46.031Z,100236.39
2024-03-19T15:46:16.271Z,100236.80
2024-03-19T15:48:48.221Z,100238.61
2024-03-19T15:51:18.453Z,100238.15
2024-03-19T15:53:50.208Z,100241.31
2024-03-19T15:56:20.434Z,100245.31
2024-03-19T15:58:52.480Z,100241.90
2024-03-19T16:01:23.429Z,100242.14
2024-03-19T16:03:55.296Z,100243.73
2024-03-19T16:06:26.019Z,100242.74
2024-03-19T16:08:58.408Z,100245.58
2024-03-19T16:11:28.837Z,100245.84
2024-03-19T16:14:00.676Z,100246.80
2024-03-19T16:16:31.007Z,100247.95
2024-03-19T16:19:02.793Z,100245.80
2024-03-19T16:21:33.396Z,100247.03
2024-03-19T16:24:08.608Z,100250.52
2024-03-19T16:26:41.221Z,100250.39
2024-03-19T16:29:11.744Z,100252.35
2024-03-19T16:31:43.494Z,100252.40
2024-03-19T16:34:14.748Z,100253.67
2024-03-19T16:36:46.884Z,100253.39
2024-03-19T16:39:17.330Z,100253.63
2024-03-19T16:41:48.880Z,100252.33
2024-03-19T16:44:19.413Z,100255.34
2024-03-19T16:46:54.145Z,100259.25
2024-03-19T16:49:27.026Z,100262.33
2024-03-19T16:51:57.650Z,100264.71
2024-03-19T16:54:29.200Z,100267.08
2024-03-19T16:56:59.943Z,100267.34
2024-03-19T16:59:31.496Z,100268.80
2024-03-19T17:02:02.126Z,100274.05
2024-03-19T17:04:35.219Z,100270.50
2024-03-19T17:07:05.648Z,100280.79
2024-03-19T17:09:37.308Z,100284.48
2024-03-19T17:12:08.865Z,100287.66
2024-03-19T17:14:40.618Z,100285.83
2024-03-19T17:17:11.332Z,100291.44
2024-03-19T17:19:43.107Z,100295.51
2024-03-19T17:22:13.619Z,100295.92
2024-03-19T17:24:45.275Z,100299.10
2024-03-19T17:27:16.215Z,100301.22
2024-03-19T17:29:47.892Z,100306.64
2024-03-19T17:32:18.501Z,100305.88
2024-03-19T17:34:50.264Z,100304.73
2024-03-19T17:37:20.696Z,100304.77
2024-03-19T17:39:52.444Z,100308.27
2024-03-19T17:42:23.277Z,100312.43
2024-03-19T17:44:55.136Z,100310.58
2024-03-19T17:47:25.698Z,100313.76
2024-03-19T17:49:57.728Z,100315.90
2024-03-19T17:52:29.294Z,100318.73
2024-03-19T17:55:01.357Z,100319.64
2024-03-19T17:57:33.031Z,100326.59
2024-03-19T18:00:08.376Z,100322.31
2024-03-19T18:02:43.795Z,100320.29
2024-03-19T18:05:16.786Z,100321.55
2024-03-19T18:07:47.312Z,100321.42
2024-03-19T18:10:20.122Z,100318.36
2024-03-19T18:12:50.311Z,100322.04
2024-03-19T18:15:24.534Z,100323.45
2024-03-19T18:17:54.954Z,100328.30
2024-03-19T18:20:28.376Z,100332.45
2024-03-19T18:22:59.202Z,100332.12
2024-03-19T18:25:33.001Z,100332.66
2024-03-19T18:28:04.146Z,100335.80
2024-03-19T18:30:35.893Z,100330.65
2024-03-19T18:33:07.998Z,100329.10
2024-03-19T18:35:39.931Z,100331.36
2024-03-19T18:38:10.756Z,100332.25
2024-03-19T18:40:43.848Z,100331.77
2024-03-19T18:43:16.834Z,100331.24
2024-03-19T18:45:48.713Z,100337.30
2024-03-19T18:48:19.535Z,100334.90
2024-03-19T18:50:51.193Z,100337.34
2024-03-19T18:53:22.632Z,100337.70
2024-03-19T18:55:54.499Z,100341.67
2024-03-19T18:58:25.637Z,100339.61
2024-03-19T19:00:57.301Z,100340.30
2024-03-19T19:03:30.186Z,100342.02
2024-03-19T19:06:02.147Z,100339.42
2024-03-19T19:08:32.667Z,100344.08
2024-03-19T19:11:04.223Z,100346.67
2024-03-19T19:13:34.647Z,100345.30
2024-03-19T19:16:06.813Z,100352.19
2024-03-19T19:18:38.087Z,100351.35
2024-03-19T19:21:09.413Z,100354.80
2024-03-19T19:23:39.935Z,100355.16
2024-03-19T19:26:11.385Z,100353.95
2024-03-19T19:28:42.615Z,100354.30
2024-03-19T19:31:14.904Z,100355.51
2024-03-19T19:33:45.850Z,100357.76
2024-03-19T19:36:17.599Z,100358.27
2024-03-19T19:38:48.225Z,100358.63
2024-03-19T19:41:20.301Z,100362.59
2024-03-19T19:43:51.578Z,100363.98
2024-03-19T19:46:24.164Z,100362.07
2024-03-19T19:48:54.854Z,100359.31
2024-03-19T19:51:26.726Z,100357.42
2024-03-19T19:53:57.959Z,100356.73
2024-03-19T19:56:29.924Z,100360.48
2024-03-19T19:59:01.382Z,100357.75
2024-03-19T20:01:34.195Z,100363.41
2024-03-19T20:04:05.394Z,100358.93
2024-03-19T20:06:37.167Z,100364.26
2024-03-19T20:09:08.400Z,100367.00
2024-03-19T20:11:39.952Z,100367.53
2024-03-19T20:14:10.489Z,100365.98
2024-03-19T20:16:42.650Z,100364.95
2024-03-19T20:19:12.977Z,100364.61
2024-03-19T20:21:45.139Z,100365.46
2024-03-19T20:24:17.017Z,100364.42
2024-03-19T20:26:48.767Z,100364.06
2024-03-19T20:29:19.296Z,100365.61
2024-03-19T20:31:51.458Z,100363.71
2024-03-19T20:34:21.674Z,100364.05
2024-03-19T20:36:54.153Z,100361.98
2024-03-19T20:39:25.092Z,100361.29
2024-03-19T20:41:57.084Z,100360.95
2024-03-19T20:44:27.478Z,100361.48
2024-03-19T20:47:00.364Z,100363.70
2024-03-19T20:49:30.589Z,100358.87
2024-03-19T20:52:02.541Z,100355.79
2024-03-19T20:54:36.253Z,100354.42
2024-03-19T20:57:08.517Z,100352.89
2024-03-19T20:59:38.939Z,100351.35
2024-03-19T21:02:12.219Z,100347.91
2024-03-19T21:04:43.196Z,100349.45
2024-03-19T21:07:14.935Z,100346.49
2024-03-19T21:09:45.367Z,100346.82
2024-03-19T21:12:17.061Z,100342.34
2024-03-19T21:14:47.450Z,100339.06
2024-03-19T21:17:19.101Z,100340.45
2024-03-19T21:19:49.443Z,100340.09
2024-03-19T21:22:22.662Z,100335.11
2024-03-19T21:24:53.141Z,100333.21
2024-03-19T21:27:24.904Z,100335.95
2024-03-19T21:29:55.444Z,100333.36
2024-03-19T21:32:27.598Z,100332.16
2024-03-19T21:34:58.329Z,100336.27
2024-03-19T21:37:32.177Z,100335.77
2024-03-19T21:40:02.475Z,100338.37
2024-03-19T21:42:34.628Z,100334.26
2024-03-19T21:45:06.802Z,100330.14
2024-03-19T21:47:39.061Z,100332.71
2024-03-19T21:50:10.521Z,100337.52
2024-03-19T21:52:41.970Z,100339.18
2024-03-19T21:55:12.493Z,100343.96
2024-03-19T21:57:44.041Z,100344.13
2024-03-19T22:00:15.308Z,100345.48
2024-03-19T22:02:46.851Z,100342.70
2024-03-19T22:05:18.796Z,100337.20
2024-03-19T22:07:51.897Z,100332.04
2024-03-19T22:10:22.430Z,100325.16
2024-03-19T22:12:53.882Z,100323.42
2024-03-19T22:15:24.197Z,100320.33
2024-03-19T22:17:55.947Z,100322.02
2024-03-19T22:20:26.592Z,100321.82
2024-03-19T22:22:58.246Z,100324.04
2024-03-19T22:25:29.484Z,100318.72
2024-03-19T22:28:01.861Z,100317.86
2024-03-19T22:30:32.395Z,100322.82
2024-03-19T22:33:04.727Z,100325.04
2024-03-19T22:35:35.726Z,100327.59
2024-03-19T22:38:07.455Z,100323.44
2024-03-19T22:40:37.782Z,100320.70
2024-03-19T22:43:09.450Z,100323.23
2024-03-19T22:45:41.618Z,100330.59
2024-03-19T22:48:13.461Z,100333.14
2024-03-19T22:50:44.585Z,100329.19
2024-03-19T22:53:16.273Z,100326.96
2024-03-19T22:55:46.592Z,100322.00
2024-03-19T22:58:18.205Z,100326.11
2024-03-19T23:00:52.781Z,100322.68
2024-03-19T23:03:24.628Z,100328.69
2024-03-19T23:05:55.159Z,100326.14
2024-03-19T23:08:26.904Z,100328.77
